Tuesday, July 17, 2018, 12:39 AM CDT
Back to Local

KEWK, Newton, Newton City/county Airport

Location: Newton, KS, United States Lat: 38.05
Local Time: 12:39 AM CDT ( 5:39 GMT) Lon: -97.283
Time Zone: US/Central Elev: 1532 ft

Show me the last for .
Show Decoded

2018-07-16 23:56 METAR KEWK 170456Z AUTO 12003KT 10SM CLR 24/21 A3007 RMK AO2 SLP166 T02440206
                 403060200 =
2018-07-16 22:56 METAR KEWK 170356Z AUTO 16005KT 10SM CLR 26/21 A3007 RMK AO2 SLP167 T02560206 =
2018-07-16 21:56 METAR KEWK 170256Z AUTO 18006KT 10SM CLR 26/22 A3006 RMK AO2 SLP163 T02560217
                 53010 =
2018-07-16 20:56 METAR KEWK 170156Z AUTO 15005KT 10SM CLR 27/22 A3004 RMK AO2 SLP158 T02670222 =
2018-07-16 19:56 METAR KEWK 170056Z AUTO 13004KT 10SM CLR 28/22 A3003 RMK AO2 SLP154 T02830217 =
2018-07-16 18:56 METAR KEWK 162356Z AUTO 13005KT 10SM CLR 29/21 A3002 RMK AO2 SLP150 T02940211
                 10306 20267 56010 =
2018-07-16 17:56 METAR KEWK 162256Z AUTO 07004KT 10SM CLR 30/21 A3003 RMK AO2 SLP153 T03000211 =
2018-07-16 16:56 METAR KEWK 162156Z AUTO 05003KT 10SM CLR 30/22 A3004 RMK AO2 SLP153 T03000222 =
2018-07-16 14:56 METAR KEWK 161956Z AUTO 08005KT 10SM CLR 29/22 A3007 RMK AO2 SLP165 T02890222 =
2018-07-16 13:56 METAR KEWK 161856Z AUTO 08003KT 10SM CLR 29/21 A3009 RMK AO2 SLP172 T02890211 =
2018-07-16 12:56 METAR KEWK 161756Z AUTO 00000KT 10SM CLR 27/21 A3010 RMK AO2 SLP177 60025
                 T02670211 10267 20206 51009 =
2018-07-16 11:56 METAR KEWK 161656Z AUTO 00000KT 10SM SCT110 24/22 A3010 RMK AO2 SLP177 T02440217
                 =
2018-07-16 10:56 METAR KEWK 161556Z AUTO 10004KT 10SM BKN110 23/21 A3009 RMK AO2 SLP175 T02280206
                 =
2018-07-16 09:56 METAR KEWK 161456Z AUTO 11007KT 10SM SCT110 21/21 A3007 RMK AO2 TSE03RAE44
                 SLP170 P0002 60025 T02110206 58002 =
2018-07-16 09:09 METAR KEWK 161409Z AUTO 10006KT 10SM -RA FEW065 BKN100 OVC120 21/20 A3009 RMK
                 AO2 LTG DSNT SE TSE03 P0001 =
2018-07-16 08:56 METAR KEWK 161356Z AUTO 01003KT 10SM VCTS -RA FEW060 BKN090 BKN120 21/20 A3011
                 RMK AO2 LTG DSNT SE AND S TSE47B49 SLP180 P0011 T02110200 =
2018-07-16 08:49 METAR KEWK 161349Z AUTO 00000KT 10SM VCTS -RA FEW070 BKN090 BKN120 21/20 A3011
                 RMK AO2 LTG DSNT E-S TSE47B49 P0011 =
2018-07-16 07:56 METAR KEWK 161256Z AUTO VRB03KT 9SM -TSRA FEW060 OVC090 21/20 A3010 RMK AO2 LTG
                 DSNT ALQDS TSE02B04 PRESRR SLP179 P0012 T02060200 =
2018-07-16 07:04 METAR KEWK 161204Z AUTO 08007KT 6SM -TSRA BR FEW031 BKN055 OVC090 21/20 A3007
                 RMK AO2 LTG DSNT ALQDS TSE02B04 P0002 =
2018-07-16 06:56 METAR KEWK 161156Z AUTO 08007KT 3SM TSRA BR SCT029 BKN042 OVC050 21/20 A3008 RMK
                 AO2 LTG DSNT ALQDS SLP171 P0147 60207 70209 T02110200 10239 20200 50012 =
2018-07-16 06:38 METAR KEWK 161138Z AUTO 34013KT 8SM -TSRA FEW017 BKN042 OVC050 21/21 A3010 RMK
                 AO2 LTG DSNT N-SE P0128 =
2018-07-16 06:27 METAR KEWK 161127Z AUTO 35007KT 5SM TSRA BR FEW007 BKN026 OVC048 21/20 A3010 RMK
                 AO2 LTG DSNT ALQDS P0119 =
2018-07-16 06:16 METAR KEWK 161116Z AUTO 36003KT 2SM +TSRA BR FEW006 SCT010 OVC016 21/19 A3010
                 RMK AO2 VIS 1 1/4V3 LTG DSNT ALQDS P0102 =
2018-07-16 06:06 METAR KEWK 161106Z AUTO VRB04G15KT 1 3/4SM +TSRA BR SCT006 BKN010 OVC038 21/20
                 A3011 RMK AO2 LTG DSNT ALQDS CIG 008V012 P0067 =
2018-07-16 05:56 METAR KEWK 161056Z AUTO 24015G19KT 2 1/2SM +TSRA BR FEW006 BKN019 OVC038 21/21
                 A3010 RMK AO2 LTG DSNT SW AND NW TSB10RAB35 PRESRR SLP178 P0060 T02110206 =
2018-07-16 05:53 METAR KEWK 161053Z AUTO VRB06KT 2 1/2SM +TSRA BR SCT010 OVC038 21/21 A3009 RMK
                 AO2 LTG DSNT SW AND NW TSB10RAB35 PRESRR P0048 =
2018-07-16 05:16 METAR KEWK 161016Z AUTO 02009KT 10SM TS FEW046 BKN065 OVC090 23/21 A3004 RMK AO2
                 LTG DSNT W-N TSB10 =
2018-07-16 04:56 METAR KEWK 160956Z AUTO 04005KT 9SM SCT090 23/21 A3003 RMK AO2 LTG DSNT N AND NW
                 SLP154 T02280211 =
2018-07-16 03:56 METAR KEWK 160856Z AUTO 33004KT 10SM FEW090 23/21 A3004 RMK AO2 LTG DSNT NW
                 TSB19E34 SLP154 T02330206 53002 =
2018-07-16 03:40 METAR KEWK 160840Z AUTO 33005KT 10SM SCT065 BKN090 23/21 A3005 RMK AO2 LTG DSNT
                 W AND NW TSB19E34 =
2018-07-16 02:56 METAR KEWK 160756Z AUTO 00000KT 10SM CLR 23/21 A3002 RMK AO2 LTG DSNT W AND NW
                 SLP147 T02280206 =
2018-07-16 01:56 METAR KEWK 160656Z AUTO 15007KT 10SM FEW090 23/21 A3003 RMK AO2 LTG DSNT NW
                 SLP151 T02280206 =
2018-07-16 00:56 METAR KEWK 160556Z AUTO 12008KT 10SM CLR 24/21 A3004 RMK AO2 SLP152 T02390211
                 10267 20233 50007 =

Support USWX by starting your Amazon purchase here.